THY9CH LTFM-LSGG
Flight info
| Callsign | THY9CH |
|---|---|
| Flight time | 2h 45m |
| Altitude | 36000 |
| Route | VADEN N618 GOL DCT DOLAP DCT OBLAK DCT VEBAR DCT ROTAR DCT TZO DCT MMP DCT AOSTA L615 BANKO |
| Aircraft | A321/M-SDE3FGHIRWY/LB1 |
Departure
| Time | 2026-05-07 04:51 |
|---|---|
| Airport | İstanbul Airport (LTFM) |
Arrival
| Time | 2026-05-07 07:37 |
|---|---|
| Airport | Geneva International Airport (LSGG) |
| Time | Latitude | Longitude | Altitude | Speed | Heading |
|---|---|---|---|---|---|
| 2026-05-07 04:33 | 41.26494 | 28.73501 | 334 ft | 0 kts | 71° |
| 2026-05-07 04:43 | 41.26488 | 28.73474 | 333 ft | 4 kts | 71° |
| 2026-05-07 04:44 | 41.26484 | 28.73458 | 331 ft | 4 kts | 75° |
| 2026-05-07 04:44 | 41.26482 | 28.73424 | 330 ft | 4 kts | 113° |
| 2026-05-07 04:44 | 41.26498 | 28.73400 | 331 ft | 4 kts | 156° |
| 2026-05-07 04:44 | 41.26522 | 28.73388 | 329 ft | 0 kts | 161° |
| 2026-05-07 04:46 | 41.26519 | 28.73389 | 329 ft | 1 kts | 161° |
| 2026-05-07 04:47 | 41.26497 | 28.73400 | 331 ft | 4 kts | 161° |
| 2026-05-07 04:47 | 41.26464 | 28.73415 | 331 ft | 6 kts | 161° |
| 2026-05-07 04:47 | 41.26435 | 28.73428 | 331 ft | 7 kts | 161° |
| 2026-05-07 04:47 | 41.26381 | 28.73453 | 333 ft | 9 kts | 161° |
| 2026-05-07 04:48 | 41.26317 | 28.73483 | 333 ft | 11 kts | 161° |
| 2026-05-07 04:48 | 41.26248 | 28.73495 | 332 ft | 11 kts | 202° |
| 2026-05-07 04:48 | 41.26221 | 28.73407 | 331 ft | 12 kts | 269° |
| 2026-05-07 04:48 | 41.26219 | 28.73292 | 332 ft | 13 kts | 269° |
| 2026-05-07 04:49 | 41.26218 | 28.73163 | 331 ft | 15 kts | 269° |
| 2026-05-07 04:49 | 41.26216 | 28.73021 | 331 ft | 16 kts | 269° |
| 2026-05-07 04:49 | 41.26214 | 28.72877 | 334 ft | 16 kts | 269° |
| 2026-05-07 04:49 | 41.26212 | 28.72726 | 334 ft | 17 kts | 269° |
| 2026-05-07 04:50 | 41.26210 | 28.72590 | 334 ft | 13 kts | 269° |
| 2026-05-07 04:50 | 41.26264 | 28.72525 | 332 ft | 13 kts | 356° |
| 2026-05-07 04:50 | 41.26285 | 28.72524 | 329 ft | 0 kts | 359° |
| 2026-05-07 04:50 | 41.26319 | 28.72524 | 330 ft | 25 kts | 359° |
| 2026-05-07 04:51 | 41.26744 | 28.72514 | 330 ft | 95 kts | 359° |
| 2026-05-07 04:51 | 41.27607 | 28.72493 | 331 ft | 151 kts | 359° |
| 2026-05-07 04:51 | 41.28805 | 28.72469 | 464 ft | 184 kts | 360° |
| 2026-05-07 04:51 | 41.30098 | 28.72437 | 1107 ft | 186 kts | 359° |
| 2026-05-07 04:52 | 41.31411 | 28.72435 | 1706 ft | 195 kts | 359° |
| 2026-05-07 04:52 | 41.32837 | 28.72453 | 1967 ft | 215 kts | 359° |
| 2026-05-07 04:52 | 41.34390 | 28.72473 | 2087 ft | 238 kts | 359° |
| 2026-05-07 04:52 | 41.36107 | 28.72496 | 2452 ft | 251 kts | 359° |
| 2026-05-07 04:53 | 41.37816 | 28.72131 | 3101 ft | 249 kts | 332° |
| 2026-05-07 04:53 | 41.39126 | 28.70642 | 3607 ft | 254 kts | 302° |
| 2026-05-07 04:53 | 41.40039 | 28.68611 | 4222 ft | 257 kts | 300° |
| 2026-05-07 04:53 | 41.40950 | 28.66562 | 4912 ft | 258 kts | 301° |
| 2026-05-07 04:54 | 41.41870 | 28.64507 | 5589 ft | 259 kts | 301° |
| 2026-05-07 04:54 | 41.42798 | 28.62445 | 6263 ft | 260 kts | 301° |
| 2026-05-07 04:54 | 41.43718 | 28.60403 | 6891 ft | 261 kts | 301° |
| 2026-05-07 04:54 | 41.44660 | 28.58317 | 7493 ft | 264 kts | 302° |
| 2026-05-07 04:55 | 41.45610 | 28.56210 | 8092 ft | 267 kts | 302° |
| 2026-05-07 04:55 | 41.46567 | 28.54083 | 8682 ft | 270 kts | 302° |
| 2026-05-07 04:55 | 41.47540 | 28.51923 | 9268 ft | 273 kts | 302° |
| 2026-05-07 04:55 | 41.48520 | 28.49744 | 9859 ft | 276 kts | 303° |
| 2026-05-07 04:56 | 41.49513 | 28.47536 | 10396 ft | 279 kts | 303° |
| 2026-05-07 04:56 | 41.50512 | 28.45308 | 10688 ft | 292 kts | 303° |
| 2026-05-07 04:56 | 41.51586 | 28.42911 | 10824 ft | 310 kts | 303° |
| 2026-05-07 04:56 | 41.52724 | 28.40374 | 10945 ft | 327 kts | 302° |
| 2026-05-07 04:57 | 41.53914 | 28.37718 | 11208 ft | 338 kts | 302° |
| 2026-05-07 04:57 | 41.55124 | 28.35004 | 11673 ft | 342 kts | 302° |
| 2026-05-07 04:57 | 41.56344 | 28.32265 | 12188 ft | 345 kts | 302° |
| 2026-05-07 04:57 | 41.57577 | 28.29500 | 12688 ft | 348 kts | 302° |
| 2026-05-07 04:58 | 41.58770 | 28.26672 | 13202 ft | 351 kts | 300° |
| 2026-05-07 04:58 | 41.59900 | 28.23765 | 13693 ft | 355 kts | 298° |
| 2026-05-07 04:58 | 41.60985 | 28.20836 | 14133 ft | 358 kts | 298° |
| 2026-05-07 04:58 | 41.62078 | 28.17836 | 14610 ft | 360 kts | 298° |
| 2026-05-07 04:59 | 41.63179 | 28.14825 | 15087 ft | 362 kts | 298° |
| 2026-05-07 04:59 | 41.64295 | 28.11805 | 15568 ft | 363 kts | 298° |
| 2026-05-07 04:59 | 41.65425 | 28.08783 | 16048 ft | 364 kts | 299° |
| 2026-05-07 04:59 | 41.66569 | 28.05751 | 16516 ft | 366 kts | 299° |
| 2026-05-07 05:00 | 41.67754 | 28.02732 | 16969 ft | 366 kts | 303° |
| 2026-05-07 05:00 | 41.69136 | 27.99867 | 17439 ft | 367 kts | 305° |
| 2026-05-07 05:00 | 41.70533 | 27.96994 | 17901 ft | 369 kts | 305° |
| 2026-05-07 05:00 | 41.71915 | 27.94149 | 18340 ft | 370 kts | 305° |
| 2026-05-07 05:01 | 41.73323 | 27.91248 | 18722 ft | 372 kts | 305° |
| 2026-05-07 05:01 | 41.74732 | 27.88333 | 19083 ft | 374 kts | 305° |
| 2026-05-07 05:01 | 41.76145 | 27.85399 | 19454 ft | 376 kts | 305° |
| 2026-05-07 05:01 | 41.77562 | 27.82456 | 19821 ft | 377 kts | 305° |
| 2026-05-07 05:02 | 41.78988 | 27.79496 | 20198 ft | 379 kts | 305° |
| 2026-05-07 05:02 | 41.80418 | 27.76523 | 20566 ft | 380 kts | 305° |
| 2026-05-07 05:02 | 41.81854 | 27.73535 | 20929 ft | 382 kts | 305° |
| 2026-05-07 05:02 | 41.83275 | 27.70575 | 21260 ft | 384 kts | 304° |
| 2026-05-07 05:03 | 41.84722 | 27.67556 | 21606 ft | 386 kts | 304° |
| 2026-05-07 05:03 | 41.86177 | 27.64521 | 21973 ft | 387 kts | 304° |
| 2026-05-07 05:03 | 41.87635 | 27.61476 | 22326 ft | 388 kts | 304° |
| 2026-05-07 05:03 | 41.89098 | 27.58422 | 22670 ft | 390 kts | 304° |
| 2026-05-07 05:04 | 41.90566 | 27.55352 | 23012 ft | 392 kts | 304° |
| 2026-05-07 05:04 | 41.92035 | 27.52268 | 23354 ft | 393 kts | 304° |
| 2026-05-07 05:04 | 41.93491 | 27.49208 | 23686 ft | 395 kts | 304° |
| 2026-05-07 05:04 | 41.94970 | 27.46097 | 23955 ft | 396 kts | 304° |
| 2026-05-07 05:05 | 41.96457 | 27.42969 | 24222 ft | 398 kts | 304° |
| 2026-05-07 05:05 | 41.97949 | 27.39825 | 24509 ft | 399 kts | 304° |
| 2026-05-07 05:05 | 41.99443 | 27.36672 | 24800 ft | 401 kts | 304° |
| 2026-05-07 05:05 | 42.00942 | 27.33504 | 25081 ft | 402 kts | 304° |
| 2026-05-07 05:06 | 42.02445 | 27.30326 | 25356 ft | 403 kts | 304° |
| 2026-05-07 05:06 | 42.03950 | 27.27139 | 25610 ft | 405 kts | 304° |
| 2026-05-07 05:06 | 42.05442 | 27.23976 | 25868 ft | 406 kts | 304° |
| 2026-05-07 05:06 | 42.07066 | 27.20871 | 26120 ft | 406 kts | 310° |
| 2026-05-07 05:07 | 42.08947 | 27.18028 | 26363 ft | 408 kts | 313° |
| 2026-05-07 05:07 | 42.10847 | 27.15184 | 26623 ft | 409 kts | 313° |
| 2026-05-07 05:07 | 42.12753 | 27.12331 | 26886 ft | 411 kts | 313° |
| 2026-05-07 05:07 | 42.14663 | 27.09460 | 27140 ft | 412 kts | 313° |
| 2026-05-07 05:08 | 42.16577 | 27.06580 | 27382 ft | 413 kts | 312° |
| 2026-05-07 05:08 | 42.18495 | 27.03688 | 27639 ft | 415 kts | 312° |
| 2026-05-07 05:08 | 42.20420 | 27.00781 | 27889 ft | 416 kts | 312° |
| 2026-05-07 05:08 | 42.22324 | 26.97906 | 28098 ft | 417 kts | 312° |
| 2026-05-07 05:09 | 42.24261 | 26.94977 | 28363 ft | 419 kts | 312° |
| 2026-05-07 05:09 | 42.26200 | 26.92046 | 28601 ft | 420 kts | 312° |
| 2026-05-07 05:09 | 42.28151 | 26.89103 | 28825 ft | 421 kts | 312° |
| 2026-05-07 05:09 | 42.30104 | 26.86150 | 29040 ft | 422 kts | 312° |
| 2026-05-07 05:10 | 42.32058 | 26.83182 | 29251 ft | 423 kts | 312° |
| 2026-05-07 05:10 | 42.34016 | 26.80206 | 29465 ft | 424 kts | 312° |
| 2026-05-07 05:10 | 42.35976 | 26.77222 | 29651 ft | 425 kts | 312° |
| 2026-05-07 05:10 | 42.37910 | 26.74272 | 29887 ft | 424 kts | 312° |
| 2026-05-07 05:11 | 42.39863 | 26.71288 | 30170 ft | 423 kts | 312° |
| 2026-05-07 05:11 | 42.41812 | 26.68310 | 30407 ft | 422 kts | 312° |
| 2026-05-07 05:11 | 42.43759 | 26.65335 | 30626 ft | 421 kts | 312° |
| 2026-05-07 05:11 | 42.45700 | 26.62371 | 30841 ft | 421 kts | 312° |
| 2026-05-07 05:12 | 42.47637 | 26.59411 | 31055 ft | 420 kts | 312° |
| 2026-05-07 05:12 | 42.49577 | 26.56439 | 31267 ft | 420 kts | 312° |
| 2026-05-07 05:12 | 42.51512 | 26.53481 | 31486 ft | 419 kts | 312° |
| 2026-05-07 05:12 | 42.53334 | 26.50399 | 31674 ft | 419 kts | 304° |
| 2026-05-07 05:13 | 42.54755 | 26.47010 | 31858 ft | 421 kts | 296° |
| 2026-05-07 05:13 | 42.55803 | 26.43299 | 32045 ft | 422 kts | 291° |
| 2026-05-07 05:13 | 42.56755 | 26.39538 | 32255 ft | 421 kts | 291° |
| 2026-05-07 05:13 | 42.57706 | 26.35784 | 32452 ft | 421 kts | 291° |
| 2026-05-07 05:14 | 42.58654 | 26.32028 | 32649 ft | 420 kts | 291° |
| 2026-05-07 05:14 | 42.59598 | 26.28278 | 32844 ft | 420 kts | 291° |
| 2026-05-07 05:14 | 42.60545 | 26.24533 | 33019 ft | 419 kts | 291° |
| 2026-05-07 05:14 | 42.61483 | 26.20843 | 33216 ft | 419 kts | 291° |
| 2026-05-07 05:15 | 42.62431 | 26.17106 | 33375 ft | 419 kts | 290° |
| 2026-05-07 05:15 | 42.63371 | 26.13365 | 33552 ft | 419 kts | 290° |
| 2026-05-07 05:15 | 42.64307 | 26.09625 | 33737 ft | 418 kts | 290° |
| 2026-05-07 05:15 | 42.65245 | 26.05882 | 33913 ft | 418 kts | 290° |
| 2026-05-07 05:16 | 42.66179 | 26.02141 | 34098 ft | 418 kts | 290° |
| 2026-05-07 05:16 | 42.67107 | 25.98404 | 34257 ft | 417 kts | 290° |
| 2026-05-07 05:16 | 42.68034 | 25.94669 | 34411 ft | 417 kts | 290° |
| 2026-05-07 05:16 | 42.68952 | 25.90988 | 34562 ft | 417 kts | 290° |
| 2026-05-07 05:17 | 42.69886 | 25.87262 | 34707 ft | 416 kts | 290° |
| 2026-05-07 05:17 | 42.70815 | 25.83542 | 34864 ft | 416 kts | 290° |
| 2026-05-07 05:17 | 42.71740 | 25.79824 | 35024 ft | 415 kts | 290° |
| 2026-05-07 05:17 | 42.72659 | 25.76101 | 35082 ft | 415 kts | 290° |
| 2026-05-07 05:18 | 42.74499 | 25.68651 | 35075 ft | 415 kts | 290° |
| 2026-05-07 05:18 | 42.76332 | 25.61200 | 35075 ft | 415 kts | 290° |
| 2026-05-07 05:19 | 42.78145 | 25.53796 | 35071 ft | 415 kts | 290° |
| 2026-05-07 05:19 | 42.79968 | 25.46346 | 35074 ft | 415 kts | 290° |
| 2026-05-07 05:20 | 42.81784 | 25.38882 | 35075 ft | 415 kts | 290° |
| 2026-05-07 05:20 | 42.83609 | 25.31420 | 35071 ft | 415 kts | 290° |
| 2026-05-07 05:21 | 42.86307 | 25.20254 | 35069 ft | 416 kts | 289° |
| 2026-05-07 05:22 | 42.88106 | 25.12764 | 35063 ft | 416 kts | 289° |
| 2026-05-07 05:22 | 42.89908 | 25.05280 | 35060 ft | 416 kts | 289° |
| 2026-05-07 05:23 | 42.91705 | 24.97792 | 35057 ft | 415 kts | 289° |
| 2026-05-07 05:23 | 42.93479 | 24.90350 | 35062 ft | 415 kts | 289° |
| 2026-05-07 05:24 | 42.95261 | 24.82849 | 35060 ft | 415 kts | 289° |
| 2026-05-07 05:24 | 42.97036 | 24.75352 | 35061 ft | 415 kts | 289° |
| 2026-05-07 05:25 | 42.98815 | 24.67850 | 35056 ft | 415 kts | 289° |
| 2026-05-07 05:25 | 43.00575 | 24.60393 | 35050 ft | 415 kts | 288° |
| 2026-05-07 05:26 | 43.02338 | 24.52879 | 35055 ft | 416 kts | 288° |
| 2026-05-07 05:26 | 43.04100 | 24.45354 | 35054 ft | 416 kts | 288° |
| 2026-05-07 05:27 | 43.05858 | 24.37830 | 35051 ft | 416 kts | 288° |
| 2026-05-07 05:27 | 43.07593 | 24.30347 | 35054 ft | 416 kts | 288° |
| 2026-05-07 05:28 | 43.09330 | 24.22806 | 35054 ft | 415 kts | 288° |
| 2026-05-07 05:28 | 43.10950 | 24.15223 | 35049 ft | 415 kts | 286° |
| 2026-05-07 05:29 | 43.12428 | 24.07574 | 35049 ft | 415 kts | 285° |
| 2026-05-07 05:29 | 43.13879 | 23.99978 | 35049 ft | 415 kts | 285° |
| 2026-05-07 05:30 | 43.15373 | 23.92343 | 35049 ft | 415 kts | 285° |
| 2026-05-07 05:30 | 43.16881 | 23.84719 | 35055 ft | 415 kts | 285° |
| 2026-05-07 05:31 | 43.18375 | 23.77091 | 35057 ft | 415 kts | 285° |
| 2026-05-07 05:31 | 43.19857 | 23.69454 | 35058 ft | 415 kts | 285° |
| 2026-05-07 05:32 | 43.21329 | 23.61868 | 35062 ft | 415 kts | 284° |
| 2026-05-07 05:32 | 43.22807 | 23.54224 | 35060 ft | 415 kts | 284° |
| 2026-05-07 05:33 | 43.24280 | 23.46577 | 35064 ft | 415 kts | 284° |
| 2026-05-07 05:33 | 43.25746 | 23.38933 | 35067 ft | 415 kts | 284° |
| 2026-05-07 05:34 | 43.27192 | 23.31333 | 35076 ft | 415 kts | 284° |
| 2026-05-07 05:34 | 43.28650 | 23.23675 | 35074 ft | 414 kts | 284° |
| 2026-05-07 05:35 | 43.30097 | 23.16020 | 35074 ft | 415 kts | 284° |
| 2026-05-07 05:35 | 43.31541 | 23.08355 | 35076 ft | 415 kts | 284° |
| 2026-05-07 05:36 | 43.32969 | 23.00740 | 35079 ft | 415 kts | 284° |
| 2026-05-07 05:36 | 43.34405 | 22.93071 | 35083 ft | 414 kts | 283° |
| 2026-05-07 05:37 | 43.35832 | 22.85431 | 35080 ft | 412 kts | 283° |
| 2026-05-07 05:37 | 43.37248 | 22.77799 | 35088 ft | 413 kts | 284° |
| 2026-05-07 05:38 | 43.39230 | 22.70377 | 35081 ft | 414 kts | 289° |
| 2026-05-07 05:38 | 43.41286 | 22.63049 | 35084 ft | 414 kts | 289° |
| 2026-05-07 05:39 | 43.43350 | 22.55663 | 35080 ft | 413 kts | 289° |
| 2026-05-07 05:39 | 43.45402 | 22.48277 | 35080 ft | 413 kts | 289° |
| 2026-05-07 05:40 | 43.47443 | 22.40888 | 35088 ft | 413 kts | 288° |
| 2026-05-07 05:40 | 43.49405 | 22.33513 | 35081 ft | 413 kts | 286° |
| 2026-05-07 05:41 | 43.51089 | 22.25967 | 35078 ft | 412 kts | 284° |
| 2026-05-07 05:41 | 43.52662 | 22.18383 | 35078 ft | 411 kts | 283° |
| 2026-05-07 05:42 | 43.54270 | 22.10813 | 35079 ft | 412 kts | 284° |
| 2026-05-07 05:42 | 43.55914 | 22.03300 | 35079 ft | 412 kts | 284° |
| 2026-05-07 05:43 | 43.57566 | 21.95739 | 35079 ft | 412 kts | 284° |
| 2026-05-07 05:43 | 43.59203 | 21.88173 | 35077 ft | 412 kts | 284° |
| 2026-05-07 05:44 | 43.60826 | 21.80597 | 35070 ft | 412 kts | 284° |
| 2026-05-07 05:44 | 43.62440 | 21.73073 | 35070 ft | 412 kts | 284° |
| 2026-05-07 05:45 | 43.64057 | 21.65496 | 35073 ft | 412 kts | 284° |
| 2026-05-07 05:45 | 43.65669 | 21.57908 | 35070 ft | 412 kts | 283° |
| 2026-05-07 05:46 | 43.67276 | 21.50316 | 35068 ft | 412 kts | 283° |
| 2026-05-07 05:46 | 43.68882 | 21.42721 | 35068 ft | 412 kts | 283° |
| 2026-05-07 05:47 | 43.70480 | 21.35122 | 35068 ft | 412 kts | 283° |
| 2026-05-07 05:47 | 43.72061 | 21.27570 | 35069 ft | 412 kts | 283° |
| 2026-05-07 05:48 | 43.73657 | 21.19950 | 35069 ft | 413 kts | 283° |
| 2026-05-07 05:48 | 43.75242 | 21.12326 | 35068 ft | 412 kts | 283° |
| 2026-05-07 05:49 | 43.76818 | 21.04695 | 35073 ft | 412 kts | 283° |
| 2026-05-07 05:49 | 43.78382 | 20.97118 | 35073 ft | 412 kts | 283° |
| 2026-05-07 05:50 | 43.79956 | 20.89481 | 35073 ft | 413 kts | 282° |
| 2026-05-07 05:50 | 43.81524 | 20.81829 | 35078 ft | 413 kts | 282° |
| 2026-05-07 05:51 | 43.83085 | 20.74178 | 35078 ft | 413 kts | 282° |
| 2026-05-07 05:51 | 43.84631 | 20.66570 | 35082 ft | 413 kts | 282° |
| 2026-05-07 05:52 | 43.86183 | 20.58899 | 35083 ft | 414 kts | 282° |
| 2026-05-07 05:52 | 43.87731 | 20.51213 | 35084 ft | 414 kts | 282° |
| 2026-05-07 05:53 | 43.89276 | 20.43515 | 35083 ft | 414 kts | 281° |
| 2026-05-07 05:53 | 43.90821 | 20.35812 | 35302 ft | 414 kts | 282° |
| 2026-05-07 05:53 | 43.91585 | 20.32015 | 35475 ft | 414 kts | 282° |
| 2026-05-07 05:54 | 43.92359 | 20.28168 | 35631 ft | 414 kts | 281° |
| 2026-05-07 05:54 | 43.93131 | 20.24310 | 35759 ft | 415 kts | 281° |
| 2026-05-07 05:54 | 43.93896 | 20.20448 | 35885 ft | 416 kts | 281° |
| 2026-05-07 05:54 | 43.94657 | 20.16584 | 36037 ft | 415 kts | 281° |
| 2026-05-07 05:55 | 43.95418 | 20.12717 | 36074 ft | 417 kts | 281° |
| 2026-05-07 05:55 | 43.96951 | 20.04950 | 36079 ft | 417 kts | 281° |
| 2026-05-07 05:56 | 43.98476 | 19.97184 | 36072 ft | 417 kts | 281° |
| 2026-05-07 05:56 | 43.99985 | 19.89466 | 36065 ft | 417 kts | 281° |
| 2026-05-07 05:57 | 44.01498 | 19.81691 | 36071 ft | 417 kts | 281° |
| 2026-05-07 05:57 | 44.03006 | 19.73910 | 36071 ft | 418 kts | 281° |
| 2026-05-07 05:58 | 44.04512 | 19.66116 | 36077 ft | 418 kts | 281° |
| 2026-05-07 05:58 | 44.06005 | 19.58363 | 36092 ft | 418 kts | 281° |
| 2026-05-07 05:59 | 44.07506 | 19.50540 | 36085 ft | 419 kts | 281° |
| 2026-05-07 05:59 | 44.08998 | 19.42706 | 36078 ft | 419 kts | 281° |
| 2026-05-07 06:00 | 44.10489 | 19.34863 | 36063 ft | 419 kts | 281° |
| 2026-05-07 06:00 | 44.11967 | 19.27066 | 36076 ft | 420 kts | 281° |
| 2026-05-07 06:01 | 44.13453 | 19.19205 | 36083 ft | 420 kts | 280° |
| 2026-05-07 06:01 | 44.15021 | 19.11345 | 36080 ft | 422 kts | 282° |
| 2026-05-07 06:02 | 44.16712 | 19.03522 | 36069 ft | 422 kts | 282° |
| 2026-05-07 06:02 | 44.18397 | 18.95747 | 36063 ft | 422 kts | 282° |
| 2026-05-07 06:03 | 44.20058 | 18.87910 | 36078 ft | 422 kts | 282° |
| 2026-05-07 06:03 | 44.21693 | 18.80070 | 36068 ft | 421 kts | 282° |
| 2026-05-07 06:04 | 44.23322 | 18.72216 | 36065 ft | 421 kts | 282° |
| 2026-05-07 06:04 | 44.24955 | 18.64369 | 36064 ft | 421 kts | 282° |
| 2026-05-07 06:05 | 44.26574 | 18.56567 | 36058 ft | 421 kts | 281° |
| 2026-05-07 06:05 | 44.28191 | 18.48707 | 36057 ft | 422 kts | 281° |
| 2026-05-07 06:06 | 44.29810 | 18.40840 | 36057 ft | 422 kts | 281° |
| 2026-05-07 06:06 | 44.31423 | 18.32968 | 36054 ft | 422 kts | 281° |
| 2026-05-07 06:07 | 44.33018 | 18.25142 | 36054 ft | 422 kts | 281° |
| 2026-05-07 06:07 | 44.34619 | 18.17266 | 36065 ft | 422 kts | 281° |
| 2026-05-07 06:08 | 44.36216 | 18.09380 | 36061 ft | 422 kts | 281° |
| 2026-05-07 06:08 | 44.37803 | 18.01490 | 36056 ft | 422 kts | 281° |
| 2026-05-07 06:09 | 44.39376 | 17.93650 | 36046 ft | 422 kts | 281° |
| 2026-05-07 06:09 | 44.40960 | 17.85754 | 36062 ft | 422 kts | 281° |
| 2026-05-07 06:10 | 44.42537 | 17.77843 | 36043 ft | 423 kts | 281° |
| 2026-05-07 06:10 | 44.44110 | 17.69916 | 36042 ft | 423 kts | 281° |
| 2026-05-07 06:11 | 44.45661 | 17.62037 | 36047 ft | 423 kts | 281° |
| 2026-05-07 06:11 | 44.47225 | 17.54092 | 36044 ft | 423 kts | 281° |
| 2026-05-07 06:12 | 44.48783 | 17.46148 | 36055 ft | 423 kts | 280° |
| 2026-05-07 06:12 | 44.50331 | 17.38193 | 36049 ft | 423 kts | 280° |
| 2026-05-07 06:13 | 44.51866 | 17.30287 | 36049 ft | 423 kts | 280° |
| 2026-05-07 06:13 | 44.53413 | 17.22325 | 36040 ft | 424 kts | 280° |
| 2026-05-07 06:14 | 44.54955 | 17.14352 | 36056 ft | 424 kts | 280° |
| 2026-05-07 06:14 | 44.56482 | 17.06374 | 36041 ft | 424 kts | 280° |
| 2026-05-07 06:15 | 44.57998 | 16.98442 | 36039 ft | 424 kts | 280° |
| 2026-05-07 06:15 | 44.59514 | 16.90457 | 36034 ft | 424 kts | 280° |
| 2026-05-07 06:16 | 44.61029 | 16.82469 | 36034 ft | 424 kts | 280° |
| 2026-05-07 06:16 | 44.62542 | 16.74484 | 36044 ft | 423 kts | 279° |
| 2026-05-07 06:17 | 44.64044 | 16.66505 | 36037 ft | 422 kts | 279° |
| 2026-05-07 06:17 | 44.65522 | 16.58585 | 36035 ft | 422 kts | 279° |
| 2026-05-07 06:18 | 44.67006 | 16.50614 | 36030 ft | 422 kts | 279° |
| 2026-05-07 06:18 | 44.68482 | 16.42655 | 36025 ft | 419 kts | 279° |
| 2026-05-07 06:19 | 44.69944 | 16.34746 | 36025 ft | 418 kts | 279° |
| 2026-05-07 06:19 | 44.71391 | 16.26888 | 36025 ft | 418 kts | 279° |
| 2026-05-07 06:20 | 44.72846 | 16.18970 | 36023 ft | 418 kts | 279° |
| 2026-05-07 06:20 | 44.74298 | 16.11048 | 36039 ft | 418 kts | 279° |
| 2026-05-07 06:21 | 44.75738 | 16.03122 | 36034 ft | 418 kts | 279° |
| 2026-05-07 06:21 | 44.77162 | 15.95232 | 36036 ft | 419 kts | 279° |
| 2026-05-07 06:22 | 44.78592 | 15.87291 | 36032 ft | 418 kts | 279° |
| 2026-05-07 06:22 | 44.80721 | 15.75380 | 36030 ft | 418 kts | 279° |
| 2026-05-07 06:23 | 44.82141 | 15.67429 | 36046 ft | 418 kts | 279° |
| 2026-05-07 06:23 | 44.83555 | 15.59490 | 36035 ft | 418 kts | 279° |
| 2026-05-07 06:24 | 44.84945 | 15.51601 | 36035 ft | 417 kts | 278° |
| 2026-05-07 06:24 | 44.86338 | 15.43668 | 36038 ft | 417 kts | 278° |
| 2026-05-07 06:25 | 44.87728 | 15.35725 | 36048 ft | 417 kts | 278° |
| 2026-05-07 06:25 | 44.89111 | 15.27784 | 36038 ft | 417 kts | 278° |
| 2026-05-07 06:26 | 44.90496 | 15.19844 | 36032 ft | 417 kts | 278° |
| 2026-05-07 06:26 | 44.91862 | 15.11958 | 36030 ft | 417 kts | 278° |
| 2026-05-07 06:27 | 44.93226 | 15.04017 | 36031 ft | 416 kts | 278° |
| 2026-05-07 06:27 | 44.94583 | 14.96071 | 36024 ft | 416 kts | 278° |
| 2026-05-07 06:28 | 44.95939 | 14.88126 | 36024 ft | 416 kts | 278° |
| 2026-05-07 06:28 | 44.97280 | 14.80228 | 36022 ft | 416 kts | 278° |
| 2026-05-07 06:29 | 44.98620 | 14.72271 | 36024 ft | 417 kts | 278° |
| 2026-05-07 06:29 | 44.99954 | 14.64308 | 36035 ft | 416 kts | 277° |
| 2026-05-07 06:30 | 45.01286 | 14.56340 | 36024 ft | 417 kts | 277° |
| 2026-05-07 06:30 | 45.02612 | 14.48419 | 36021 ft | 417 kts | 277° |
| 2026-05-07 06:31 | 45.03939 | 14.40428 | 36023 ft | 418 kts | 277° |
| 2026-05-07 06:31 | 45.05253 | 14.32432 | 36011 ft | 417 kts | 277° |
| 2026-05-07 06:32 | 45.06558 | 14.24446 | 36011 ft | 416 kts | 277° |
| 2026-05-07 06:32 | 45.07856 | 14.16527 | 36007 ft | 416 kts | 277° |
| 2026-05-07 06:33 | 45.09163 | 14.08548 | 36001 ft | 417 kts | 277° |
| 2026-05-07 06:33 | 45.10459 | 14.00551 | 36005 ft | 417 kts | 276° |
| 2026-05-07 06:34 | 45.11745 | 13.92534 | 36027 ft | 417 kts | 276° |
| 2026-05-07 06:34 | 45.13030 | 13.84553 | 35990 ft | 415 kts | 276° |
| 2026-05-07 06:35 | 45.14295 | 13.76631 | 35986 ft | 416 kts | 276° |
| 2026-05-07 06:35 | 45.15562 | 13.68638 | 35988 ft | 416 kts | 276° |
| 2026-05-07 06:36 | 45.16827 | 13.60636 | 35990 ft | 416 kts | 276° |
| 2026-05-07 06:36 | 45.18076 | 13.52681 | 36024 ft | 416 kts | 276° |
| 2026-05-07 06:37 | 45.19329 | 13.44667 | 36015 ft | 417 kts | 276° |
| 2026-05-07 06:37 | 45.20580 | 13.36649 | 36007 ft | 417 kts | 276° |
| 2026-05-07 06:38 | 45.21829 | 13.28628 | 36005 ft | 417 kts | 276° |
| 2026-05-07 06:38 | 45.23069 | 13.20601 | 36027 ft | 417 kts | 276° |
| 2026-05-07 06:39 | 45.24292 | 13.12616 | 36014 ft | 417 kts | 276° |
| 2026-05-07 06:39 | 45.25519 | 13.04565 | 36000 ft | 418 kts | 276° |
| 2026-05-07 06:40 | 45.26669 | 12.96494 | 35998 ft | 416 kts | 274° |
| 2026-05-07 06:40 | 45.27515 | 12.88385 | 35992 ft | 415 kts | 271° |
| 2026-05-07 06:41 | 45.28238 | 12.80322 | 36022 ft | 415 kts | 271° |
| 2026-05-07 06:41 | 45.28995 | 12.72194 | 36007 ft | 416 kts | 272° |
| 2026-05-07 06:42 | 45.29798 | 12.64058 | 35999 ft | 416 kts | 272° |
| 2026-05-07 06:42 | 45.30598 | 12.55926 | 35996 ft | 416 kts | 272° |
| 2026-05-07 06:43 | 45.31381 | 12.47842 | 35995 ft | 416 kts | 272° |
| 2026-05-07 06:43 | 45.32155 | 12.39698 | 35996 ft | 415 kts | 272° |
| 2026-05-07 06:44 | 45.32924 | 12.31558 | 35994 ft | 416 kts | 272° |
| 2026-05-07 06:44 | 45.33687 | 12.23412 | 35987 ft | 416 kts | 272° |
| 2026-05-07 06:45 | 45.34443 | 12.15314 | 35990 ft | 416 kts | 272° |
| 2026-05-07 06:45 | 45.35205 | 12.07155 | 36018 ft | 416 kts | 272° |
| 2026-05-07 06:46 | 45.35953 | 11.98987 | 36001 ft | 417 kts | 272° |
| 2026-05-07 06:46 | 45.36693 | 11.90817 | 36000 ft | 417 kts | 272° |
| 2026-05-07 06:47 | 45.37429 | 11.82692 | 35997 ft | 417 kts | 272° |
| 2026-05-07 06:47 | 45.38162 | 11.74507 | 35996 ft | 417 kts | 272° |
| 2026-05-07 06:48 | 45.38896 | 11.66325 | 36021 ft | 417 kts | 272° |
| 2026-05-07 06:48 | 45.39622 | 11.58137 | 36010 ft | 417 kts | 272° |
| 2026-05-07 06:49 | 45.40333 | 11.49942 | 36004 ft | 417 kts | 272° |
| 2026-05-07 06:49 | 45.41037 | 11.41805 | 36002 ft | 417 kts | 272° |
| 2026-05-07 06:50 | 45.41742 | 11.33609 | 36001 ft | 417 kts | 272° |
| 2026-05-07 06:50 | 45.42441 | 11.25411 | 36001 ft | 417 kts | 272° |
| 2026-05-07 06:51 | 45.43136 | 11.17209 | 35998 ft | 417 kts | 272° |
| 2026-05-07 06:51 | 45.43824 | 11.09064 | 35996 ft | 417 kts | 272° |
| 2026-05-07 06:52 | 45.44509 | 11.00862 | 35993 ft | 417 kts | 271° |
| 2026-05-07 06:52 | 45.45181 | 10.92654 | 36029 ft | 417 kts | 272° |
| 2026-05-07 06:53 | 45.45849 | 10.84452 | 35990 ft | 417 kts | 272° |
| 2026-05-07 06:53 | 45.46509 | 10.76301 | 35988 ft | 417 kts | 272° |
| 2026-05-07 06:54 | 45.47166 | 10.68088 | 35996 ft | 417 kts | 272° |
| 2026-05-07 06:54 | 45.47821 | 10.59868 | 35982 ft | 418 kts | 272° |
| 2026-05-07 06:55 | 45.48468 | 10.51653 | 36009 ft | 417 kts | 272° |
| 2026-05-07 06:55 | 45.49102 | 10.43481 | 35999 ft | 418 kts | 272° |
| 2026-05-07 06:56 | 45.49739 | 10.35249 | 36001 ft | 418 kts | 272° |
| 2026-05-07 06:56 | 45.50378 | 10.27010 | 35975 ft | 418 kts | 272° |
| 2026-05-07 06:57 | 45.50999 | 10.18770 | 35968 ft | 418 kts | 272° |
| 2026-05-07 06:57 | 45.51612 | 10.10579 | 35983 ft | 418 kts | 272° |
| 2026-05-07 06:58 | 45.52225 | 10.02327 | 35983 ft | 418 kts | 272° |
| 2026-05-07 06:58 | 45.52829 | 9.94070 | 36013 ft | 418 kts | 272° |
| 2026-05-07 06:59 | 45.53424 | 9.85817 | 36016 ft | 419 kts | 272° |
| 2026-05-07 06:59 | 45.54024 | 9.77561 | 36039 ft | 419 kts | 272° |
| 2026-05-07 07:00 | 45.54615 | 9.69349 | 36027 ft | 419 kts | 272° |
| 2026-05-07 07:00 | 45.55201 | 9.61080 | 36108 ft | 419 kts | 272° |
| 2026-05-07 07:01 | 45.55775 | 9.52805 | 36108 ft | 419 kts | 272° |
| 2026-05-07 07:01 | 45.56475 | 9.44536 | 36106 ft | 421 kts | 275° |
| 2026-05-07 07:02 | 45.57412 | 9.36347 | 36034 ft | 422 kts | 276° |
| 2026-05-07 07:02 | 45.58380 | 9.28087 | 36021 ft | 422 kts | 276° |
| 2026-05-07 07:03 | 45.59284 | 9.19805 | 36018 ft | 422 kts | 275° |
| 2026-05-07 07:03 | 45.60148 | 9.11513 | 36015 ft | 422 kts | 275° |
| 2026-05-07 07:04 | 45.61001 | 9.03268 | 36013 ft | 423 kts | 275° |
| 2026-05-07 07:04 | 45.61865 | 8.94962 | 36025 ft | 423 kts | 276° |
| 2026-05-07 07:05 | 45.62734 | 8.86643 | 36033 ft | 424 kts | 276° |
| 2026-05-07 07:05 | 45.63592 | 8.78302 | 36026 ft | 424 kts | 276° |
| 2026-05-07 07:06 | 45.64449 | 8.70017 | 36023 ft | 425 kts | 276° |
| 2026-05-07 07:06 | 45.65428 | 8.61690 | 36034 ft | 425 kts | 277° |
| 2026-05-07 07:07 | 45.66446 | 8.53360 | 36022 ft | 426 kts | 277° |
| 2026-05-07 07:07 | 45.67433 | 8.45013 | 36014 ft | 426 kts | 277° |
| 2026-05-07 07:08 | 45.68391 | 8.36650 | 36006 ft | 426 kts | 277° |
| 2026-05-07 07:08 | 45.69336 | 8.28346 | 36004 ft | 426 kts | 277° |
| 2026-05-07 07:09 | 45.70286 | 8.19977 | 36017 ft | 426 kts | 277° |
| 2026-05-07 07:09 | 45.71234 | 8.11607 | 36012 ft | 426 kts | 277° |
| 2026-05-07 07:10 | 45.72176 | 8.03240 | 36011 ft | 425 kts | 277° |
| 2026-05-07 07:10 | 45.72644 | 7.99061 | 35889 ft | 426 kts | 277° |
| 2026-05-07 07:10 | 45.73111 | 7.94893 | 35643 ft | 423 kts | 277° |
| 2026-05-07 07:11 | 45.73569 | 7.90804 | 35397 ft | 420 kts | 277° |
| 2026-05-07 07:11 | 45.74025 | 7.86704 | 34977 ft | 416 kts | 277° |
| 2026-05-07 07:11 | 45.74472 | 7.82626 | 34508 ft | 413 kts | 278° |
| 2026-05-07 07:11 | 45.74915 | 7.78574 | 34048 ft | 411 kts | 277° |
| 2026-05-07 07:12 | 45.75350 | 7.74546 | 33536 ft | 408 kts | 277° |
| 2026-05-07 07:12 | 45.75777 | 7.70558 | 33097 ft | 402 kts | 278° |
| 2026-05-07 07:12 | 45.76201 | 7.66628 | 32664 ft | 397 kts | 278° |
| 2026-05-07 07:12 | 45.76480 | 7.64049 | 32370 ft | 394 kts | 278° |
| 2026-05-07 07:13 | 45.77032 | 7.58948 | 31787 ft | 389 kts | 278° |
| 2026-05-07 07:13 | 45.77442 | 7.55146 | 31369 ft | 384 kts | 278° |
| 2026-05-07 07:13 | 45.77849 | 7.51380 | 30934 ft | 380 kts | 279° |
| 2026-05-07 07:13 | 45.78252 | 7.47656 | 30542 ft | 377 kts | 279° |
| 2026-05-07 07:14 | 45.78652 | 7.43963 | 30126 ft | 373 kts | 279° |
| 2026-05-07 07:14 | 45.79041 | 7.40309 | 29665 ft | 369 kts | 279° |
| 2026-05-07 07:14 | 45.79419 | 7.36697 | 29238 ft | 365 kts | 279° |
| 2026-05-07 07:14 | 45.79785 | 7.33120 | 28821 ft | 360 kts | 278° |
| 2026-05-07 07:15 | 45.80099 | 7.29629 | 28419 ft | 356 kts | 277° |
| 2026-05-07 07:15 | 45.80383 | 7.26132 | 28021 ft | 351 kts | 277° |
| 2026-05-07 07:15 | 45.80651 | 7.22670 | 27630 ft | 347 kts | 277° |
| 2026-05-07 07:15 | 45.80913 | 7.19250 | 27245 ft | 344 kts | 277° |
| 2026-05-07 07:16 | 45.81176 | 7.15854 | 26877 ft | 342 kts | 277° |
| 2026-05-07 07:16 | 45.81442 | 7.12475 | 26506 ft | 340 kts | 277° |
| 2026-05-07 07:16 | 45.81727 | 7.09128 | 26125 ft | 338 kts | 281° |
| 2026-05-07 07:16 | 45.82318 | 7.05888 | 25770 ft | 335 kts | 291° |
| 2026-05-07 07:17 | 45.83295 | 7.02872 | 25398 ft | 333 kts | 301° |
| 2026-05-07 07:17 | 45.84573 | 7.00116 | 25024 ft | 331 kts | 304° |
| 2026-05-07 07:17 | 45.85863 | 6.97441 | 24654 ft | 330 kts | 304° |
| 2026-05-07 07:17 | 45.87155 | 6.94736 | 24271 ft | 328 kts | 304° |
| 2026-05-07 07:18 | 45.88437 | 6.92037 | 23886 ft | 326 kts | 304° |
| 2026-05-07 07:18 | 45.89708 | 6.89354 | 23481 ft | 325 kts | 304° |
| 2026-05-07 07:18 | 45.90973 | 6.86681 | 23058 ft | 322 kts | 304° |
| 2026-05-07 07:18 | 45.92229 | 6.84029 | 22658 ft | 320 kts | 303° |
| 2026-05-07 07:19 | 45.93478 | 6.81392 | 22267 ft | 318 kts | 304° |
| 2026-05-07 07:19 | 45.94721 | 6.78774 | 21875 ft | 317 kts | 304° |
| 2026-05-07 07:19 | 45.95959 | 6.76172 | 21489 ft | 314 kts | 303° |
| 2026-05-07 07:19 | 45.97180 | 6.73573 | 21104 ft | 312 kts | 303° |
| 2026-05-07 07:20 | 45.98364 | 6.71018 | 20709 ft | 310 kts | 303° |
| 2026-05-07 07:20 | 45.99555 | 6.68441 | 20333 ft | 309 kts | 303° |
| 2026-05-07 07:20 | 46.00740 | 6.65877 | 19951 ft | 307 kts | 303° |
| 2026-05-07 07:20 | 46.01916 | 6.63328 | 19566 ft | 305 kts | 303° |
| 2026-05-07 07:21 | 46.03084 | 6.60793 | 19185 ft | 303 kts | 303° |
| 2026-05-07 07:21 | 46.04245 | 6.58274 | 18823 ft | 301 kts | 302° |
| 2026-05-07 07:21 | 46.05397 | 6.55777 | 18438 ft | 299 kts | 303° |
| 2026-05-07 07:21 | 46.06554 | 6.53300 | 18037 ft | 297 kts | 303° |
| 2026-05-07 07:22 | 46.07713 | 6.50845 | 17655 ft | 296 kts | 303° |
| 2026-05-07 07:22 | 46.08855 | 6.48436 | 17289 ft | 294 kts | 303° |
| 2026-05-07 07:22 | 46.10008 | 6.46009 | 16930 ft | 293 kts | 303° |
| 2026-05-07 07:22 | 46.11156 | 6.43588 | 16564 ft | 292 kts | 303° |
| 2026-05-07 07:23 | 46.12294 | 6.41182 | 16198 ft | 290 kts | 303° |
| 2026-05-07 07:23 | 46.13429 | 6.38777 | 15837 ft | 289 kts | 303° |
| 2026-05-07 07:23 | 46.14176 | 6.37195 | 15604 ft | 288 kts | 303° |
| 2026-05-07 07:23 | 46.15298 | 6.34809 | 15246 ft | 286 kts | 303° |
| 2026-05-07 07:24 | 46.16428 | 6.32447 | 14784 ft | 288 kts | 307° |
| 2026-05-07 07:24 | 46.18539 | 6.30133 | 14172 ft | 293 kts | 337° |
| 2026-05-07 07:24 | 46.20549 | 6.29599 | 13697 ft | 299 kts | 0° |
| 2026-05-07 07:24 | 46.22572 | 6.30264 | 13249 ft | 301 kts | 24° |
| 2026-05-07 07:25 | 46.25247 | 6.33457 | 12553 ft | 302 kts | 44° |
| 2026-05-07 07:25 | 46.27209 | 6.36363 | 11990 ft | 301 kts | 44° |
| 2026-05-07 07:25 | 46.28669 | 6.38528 | 11567 ft | 300 kts | 44° |
| 2026-05-07 07:26 | 46.31381 | 6.42538 | 10840 ft | 297 kts | 44° |
| 2026-05-07 07:26 | 46.32818 | 6.44661 | 10494 ft | 294 kts | 44° |
| 2026-05-07 07:26 | 46.34243 | 6.46769 | 10146 ft | 291 kts | 44° |
| 2026-05-07 07:27 | 46.35633 | 6.48822 | 10024 ft | 279 kts | 44° |
| 2026-05-07 07:27 | 46.36931 | 6.50749 | 9754 ft | 266 kts | 44° |
| 2026-05-07 07:27 | 46.38217 | 6.52665 | 9343 ft | 264 kts | 44° |
| 2026-05-07 07:27 | 46.39481 | 6.54556 | 9219 ft | 261 kts | 45° |
| 2026-05-07 07:28 | 46.40741 | 6.56456 | 9084 ft | 260 kts | 45° |
| 2026-05-07 07:28 | 46.41574 | 6.57697 | 8987 ft | 264 kts | 42° |
| 2026-05-07 07:28 | 46.43704 | 6.59189 | 8848 ft | 253 kts | 2° |
| 2026-05-07 07:28 | 46.45412 | 6.58812 | 8797 ft | 249 kts | 336° |
| 2026-05-07 07:29 | 46.46864 | 6.57508 | 8745 ft | 245 kts | 316° |
| 2026-05-07 07:29 | 46.48066 | 6.55762 | 8687 ft | 245 kts | 311° |
| 2026-05-07 07:29 | 46.49192 | 6.53956 | 8641 ft | 244 kts | 306° |
| 2026-05-07 07:29 | 46.49927 | 6.51813 | 8582 ft | 236 kts | 281° |
| 2026-05-07 07:30 | 46.49811 | 6.49584 | 8535 ft | 213 kts | 243° |
| 2026-05-07 07:30 | 46.48895 | 6.47969 | 8482 ft | 206 kts | 226° |
| 2026-05-07 07:30 | 46.47909 | 6.46467 | 8430 ft | 205 kts | 227° |
| 2026-05-07 07:30 | 46.46937 | 6.44947 | 8098 ft | 206 kts | 228° |
| 2026-05-07 07:31 | 46.45931 | 6.43492 | 7548 ft | 203 kts | 225° |
| 2026-05-07 07:31 | 46.44939 | 6.42095 | 7063 ft | 198 kts | 226° |
| 2026-05-07 07:31 | 46.43994 | 6.40713 | 6742 ft | 189 kts | 227° |
| 2026-05-07 07:31 | 46.43080 | 6.39360 | 6477 ft | 187 kts | 227° |
| 2026-05-07 07:32 | 46.42170 | 6.38010 | 6236 ft | 187 kts | 227° |
| 2026-05-07 07:32 | 46.41265 | 6.36668 | 5973 ft | 187 kts | 226° |
| 2026-05-07 07:32 | 46.40357 | 6.35322 | 5719 ft | 185 kts | 227° |
| 2026-05-07 07:32 | 46.39469 | 6.34006 | 5468 ft | 186 kts | 227° |
| 2026-05-07 07:33 | 46.38561 | 6.32660 | 5214 ft | 187 kts | 225° |
| 2026-05-07 07:33 | 46.37648 | 6.31309 | 4960 ft | 188 kts | 225° |
| 2026-05-07 07:33 | 46.36737 | 6.29960 | 4700 ft | 187 kts | 225° |
| 2026-05-07 07:33 | 46.35831 | 6.28620 | 4431 ft | 187 kts | 225° |
| 2026-05-07 07:34 | 46.34924 | 6.27280 | 4207 ft | 186 kts | 225° |
| 2026-05-07 07:34 | 46.34021 | 6.25946 | 3946 ft | 185 kts | 226° |
| 2026-05-07 07:34 | 46.33121 | 6.24616 | 3689 ft | 185 kts | 226° |
| 2026-05-07 07:34 | 46.32223 | 6.23291 | 3450 ft | 184 kts | 226° |
| 2026-05-07 07:35 | 46.31324 | 6.21964 | 3202 ft | 185 kts | 226° |
| 2026-05-07 07:35 | 46.30426 | 6.20640 | 2954 ft | 184 kts | 226° |
| 2026-05-07 07:35 | 46.29528 | 6.19316 | 2697 ft | 185 kts | 226° |
| 2026-05-07 07:35 | 46.28638 | 6.18005 | 2439 ft | 185 kts | 225° |
| 2026-05-07 07:36 | 46.27732 | 6.16671 | 2171 ft | 186 kts | 225° |
| 2026-05-07 07:36 | 46.26825 | 6.15336 | 1926 ft | 186 kts | 226° |
| 2026-05-07 07:36 | 46.25925 | 6.14017 | 1677 ft | 178 kts | 225° |
| 2026-05-07 07:36 | 46.25104 | 6.12811 | 1441 ft | 160 kts | 226° |
| 2026-05-07 07:37 | 46.24386 | 6.11746 | 1372 ft | 130 kts | 225° |
| 2026-05-07 07:37 | 46.23869 | 6.10988 | 1379 ft | 81 kts | 225° |
| 2026-05-07 07:37 | 46.23594 | 6.10585 | 1382 ft | 32 kts | 225° |
| 2026-05-07 07:37 | 46.23479 | 6.10417 | 1388 ft | 22 kts | 226° |
| 2026-05-07 07:38 | 46.23375 | 6.10263 | 1400 ft | 20 kts | 225° |
| 2026-05-07 07:38 | 46.23264 | 6.10154 | 1404 ft | 19 kts | 208° |
| 2026-05-07 07:38 | 46.23147 | 6.10093 | 1403 ft | 15 kts | 194° |
| 2026-05-07 07:38 | 46.23113 | 6.10092 | 1400 ft | 0 kts | 167° |
| 2026-05-07 07:39 | 46.23099 | 6.10102 | 1401 ft | 5 kts | 147° |
| 2026-05-07 07:39 | 46.23086 | 6.10167 | 1400 ft | 9 kts | 64° |
| 2026-05-07 07:39 | 46.23133 | 6.10244 | 1397 ft | 11 kts | 47° |
| 2026-05-07 07:40 | 46.23190 | 6.10332 | 1399 ft | 13 kts | 46° |
| 2026-05-07 07:40 | 46.23255 | 6.10431 | 1401 ft | 14 kts | 46° |
| 2026-05-07 07:40 | 46.23327 | 6.10538 | 1398 ft | 15 kts | 45° |
| 2026-05-07 07:40 | 46.23404 | 6.10645 | 1392 ft | 13 kts | 42° |
| 2026-05-07 07:41 | 46.23400 | 6.10728 | 1401 ft | 9 kts | 134° |
| 2026-05-07 07:41 | 46.23355 | 6.10793 | 1399 ft | 10 kts | 127° |
| 2026-05-07 07:41 | 46.23376 | 6.10875 | 1401 ft | 10 kts | 45° |
| 2026-05-07 07:41 | 46.23428 | 6.10951 | 1401 ft | 11 kts | 45° |
| 2026-05-07 07:42 | 46.23487 | 6.11036 | 1397 ft | 13 kts | 45° |
| 2026-05-07 07:42 | 46.23529 | 6.11098 | 1396 ft | 13 kts | 45° |
| 2026-05-07 07:42 | 46.23558 | 6.11196 | 1397 ft | 8 kts | 134° |
| 2026-05-07 07:42 | 46.23521 | 6.11248 | 1401 ft | 6 kts | 136° |
| 2026-05-07 07:43 | 46.23516 | 6.11255 | 1398 ft | 0 kts | 136° |